Niagara Falls International Airport
KIAG : rendu visible

Aérodrome :











RETROUVEZ-NOUS SUR...

 
LOGIN :

S'inscrire | Disclaimer

   EN    FR    IT 

 









Légende :    VFR   VFR Marginal   IFR   IFR Intensif   IFR Très Intensif
Visi : 
Plafond : 
>= 8 km
>= 3000ft
5 à 8 km
1000 à 3000 ft
1500m à 5 km
500 à 1000 ft
800 à 1500m
200 à 500 ft
< 800m
< 200 ft
Symboles :   Orages  Brouillard  Fortes neiges  Fortes précipitations  Vent > 20 kt






- Altitude de l'aérodrome : 589 ft
- Code IATA : IAG


KIAG - Niagara Falls International

DERNIER METAR :
  • 020953Z AUTO 31006KT 10SM SCT065 BKN100 02/M02 A2995 RMK AO2 SLP151 T00171022

METARs EXPIRÉS :
  • 020853Z AUTO 32007KT 10SM BKN100 03/M03 A2994 RMK AO2 SLP149 T00281028 53001
  • 020753Z AUTO 31008KT 10SM OVC075 04/M03 A2994 RMK AO2 SLP146 T00391028

TAF KIAG
Valide du 02 à 09h jusqu'au 03 à 06h UTC


020913Z 0209/0306 32007KT P6SM SCT100
FM021300 32007KT P6SM BKN070
FM021600 33010G19KT P6SM SCT080
FM022200 32012KT P6SM FEW090



MET'MAP, la Météo Aéronautique d'un coup d'oeil ! - Copyright ORBIFLY Décembre 2007 - Disclaimer

ORBIFLY MET'MAP TEAM :

Programmation & Développement : Alexandra Zaïnal
Sur une idée originale de : Baudouin d'Aumeries
Assistance à la programmation : Marc-Olivier Méhu
Soutien technique & logistique : Manuel Goepfert

Contact : metmap@orbifly.com




SOURCES & CREDITS :

   NOAA       Earth
Advisory